createdAt,value
2023-05-06T00:01:34.230Z,13.30
2023-05-06T00:04:00.986Z,13.52
2023-05-06T00:06:28.925Z,12.00
2023-05-06T00:08:55.363Z,11.75
2023-05-06T00:11:21.851Z,12.17
2023-05-06T00:13:48.631Z,12.73
2023-05-06T00:16:15.295Z,13.63
2023-05-06T00:18:42.061Z,13.88
2023-05-06T00:21:08.615Z,13.60
2023-05-06T00:23:35.069Z,13.73
2023-05-06T00:26:01.596Z,12.70
2023-05-06T00:28:28.070Z,13.55
2023-05-06T00:30:54.636Z,12.73
2023-05-06T00:33:21.129Z,12.75
2023-05-06T00:35:48.204Z,14.03
2023-05-06T00:38:15.470Z,13.77
2023-05-06T00:40:42.001Z,14.63
2023-05-06T00:43:08.935Z,13.80
2023-05-06T00:45:35.675Z,15.20
2023-05-06T00:48:03.181Z,14.07
2023-05-06T00:50:31.211Z,14.02
2023-05-06T00:52:59.020Z,14.60
2023-05-06T00:55:26.187Z,15.07
2023-05-06T00:57:53.050Z,15.30
2023-05-06T01:00:20.479Z,14.50
2023-05-06T01:02:48.396Z,14.93
2023-05-06T01:05:20.988Z,15.20
2023-05-06T01:08:11.888Z,14.57
2023-05-06T01:10:58.965Z,14.80
2023-05-06T01:13:42.612Z,15.27
2023-05-06T01:16:12.677Z,15.82
2023-05-06T01:18:41.062Z,16.05
2023-05-06T01:21:08.649Z,15.15
2023-05-06T01:23:58.297Z,16.35
2023-05-06T01:26:25.381Z,16.50
2023-05-06T01:28:52.256Z,16.80
2023-05-06T01:31:52.234Z,17.98
2023-05-06T01:34:38.113Z,16.02
2023-05-06T01:37:18.695Z,15.98
2023-05-06T01:39:46.242Z,15.60
2023-05-06T01:42:15.040Z,16.08
2023-05-06T01:44:43.843Z,17.48
2023-05-06T01:47:11.933Z,16.35
2023-05-06T01:49:38.684Z,17.75
2023-05-06T01:52:05.607Z,16.27
2023-05-06T01:54:32.104Z,16.58
2023-05-06T01:56:58.632Z,17.38
2023-05-06T01:59:25.188Z,16.83
2023-05-06T02:01:51.814Z,12.00
2023-05-06T02:04:18.329Z,12.33
2023-05-06T02:06:44.924Z,10.90
2023-05-06T02:09:11.399Z,11.63
2023-05-06T02:11:37.856Z,12.07
2023-05-06T02:14:04.336Z,12.27
2023-05-06T02:16:30.882Z,10.90
2023-05-06T02:18:57.436Z,12.02
2023-05-06T02:21:23.934Z,12.45
2023-05-06T02:23:50.698Z,10.65
2023-05-06T02:26:17.208Z,10.77
2023-05-06T02:28:43.708Z,10.77
2023-05-06T02:31:14.612Z,11.07
2023-05-06T02:33:41.184Z,11.73
2023-05-06T02:36:07.829Z,11.57
2023-05-06T02:38:34.260Z,11.18
2023-05-06T02:41:00.749Z,9.73
2023-05-06T02:43:27.225Z,9.63
2023-05-06T02:45:53.860Z,12.77
2023-05-06T02:48:20.499Z,14.80
2023-05-06T02:50:46.951Z,16.45
2023-05-06T02:53:13.461Z,14.70
2023-05-06T02:55:40.222Z,11.32
2023-05-06T02:58:06.700Z,14.43
2023-05-06T03:00:33.265Z,14.45
2023-05-06T03:03:00.818Z,15.82
2023-05-06T03:05:27.459Z,16.27
2023-05-06T03:07:54.045Z,16.45
2023-05-06T03:10:20.553Z,17.40
2023-05-06T03:12:46.992Z,16.63
2023-05-06T03:15:13.533Z,18.70
2023-05-06T03:17:40.040Z,17.63
2023-05-06T03:20:08.623Z,15.45
2023-05-06T03:22:35.157Z,14.82
2023-05-06T03:25:01.704Z,16.42
2023-05-06T03:27:28.140Z,15.30
2023-05-06T03:29:54.600Z,13.67
2023-05-06T03:32:21.090Z,16.25
2023-05-06T03:34:47.640Z,13.50
2023-05-06T03:37:14.091Z,14.20
2023-05-06T03:39:40.520Z,15.75
2023-05-06T03:42:09.240Z,15.47
2023-05-06T03:44:36.331Z,16.25
2023-05-06T03:47:02.865Z,13.23
2023-05-06T03:49:29.434Z,16.10
2023-05-06T03:51:56.162Z,18.38
2023-05-06T03:54:23.114Z,16.87
2023-05-06T03:56:49.650Z,17.88
2023-05-06T03:59:16.134Z,18.80
2023-05-06T04:01:42.661Z,17.27
2023-05-06T04:04:09.270Z,18.73
2023-05-06T04:06:35.859Z,18.63
2023-05-06T04:09:02.383Z,17.40
2023-05-06T04:11:29.942Z,20.30
2023-05-06T04:13:56.474Z,20.05
2023-05-06T04:16:23.209Z,18.40
2023-05-06T04:18:51.517Z,16.83
2023-05-06T04:21:18.531Z,17.73
2023-05-06T04:23:44.957Z,16.63
2023-05-06T04:26:11.442Z,14.55
2023-05-06T04:28:38.122Z,15.05
2023-05-06T04:31:04.963Z,17.47
2023-05-06T04:33:32.759Z,34.72
2023-05-06T04:36:00.345Z,27.88
2023-05-06T04:38:30.498Z,12.50
2023-05-06T04:40:57.362Z,16.35
2023-05-06T04:43:26.691Z,21.10
2023-05-06T04:45:54.329Z,17.45
2023-05-06T04:48:24.306Z,15.27
2023-05-06T04:50:51.181Z,14.38
2023-05-06T04:53:17.756Z,16.15
2023-05-06T04:55:44.329Z,15.50
2023-05-06T04:58:10.799Z,16.50
2023-05-06T05:00:37.331Z,17.25
2023-05-06T05:03:04.074Z,16.40
2023-05-06T05:05:32.535Z,15.82
2023-05-06T05:07:58.986Z,15.17
2023-05-06T05:10:25.435Z,16.75
2023-05-06T05:12:51.922Z,16.58
2023-05-06T05:15:18.668Z,18.17
2023-05-06T05:17:45.265Z,17.63
2023-05-06T05:20:11.913Z,16.63
2023-05-06T05:22:38.399Z,17.33
2023-05-06T05:25:07.484Z,17.33
2023-05-06T05:27:34.583Z,17.85
2023-05-06T05:30:01.137Z,19.00
2023-05-06T05:32:27.676Z,19.40
2023-05-06T05:34:54.133Z,21.25
2023-05-06T05:37:20.804Z,21.10
2023-05-06T05:39:54.487Z,21.30
2023-05-06T05:42:20.976Z,20.38
2023-05-06T05:44:47.433Z,20.85
2023-05-06T05:47:15.040Z,21.00
2023-05-06T05:49:41.497Z,21.13
2023-05-06T05:52:07.963Z,20.90
2023-05-06T05:54:34.430Z,20.17
2023-05-06T05:57:01.714Z,20.38
2023-05-06T05:59:28.778Z,20.58
2023-05-06T06:01:55.314Z,20.03
2023-05-06T06:04:21.771Z,20.55
2023-05-06T06:06:48.373Z,19.73
2023-05-06T06:09:14.943Z,21.73
2023-05-06T06:11:41.447Z,20.88
2023-05-06T06:14:07.982Z,19.40
2023-05-06T06:16:36.374Z,22.35
2023-05-06T06:19:03.162Z,21.65
2023-05-06T06:21:29.630Z,21.02
2023-05-06T06:23:56.081Z,19.90
2023-05-06T06:26:22.651Z,21.17
2023-05-06T06:28:49.152Z,22.20
2023-05-06T06:31:15.772Z,20.77
2023-05-06T06:33:42.295Z,20.92
2023-05-06T06:36:09.011Z,21.30
2023-05-06T06:38:35.827Z,19.90
2023-05-06T06:41:02.424Z,20.33
2023-05-06T06:43:28.931Z,19.40
2023-05-06T06:45:56.243Z,20.23
2023-05-06T06:48:22.794Z,19.85
2023-05-06T06:50:49.347Z,19.67
2023-05-06T06:53:16.175Z,19.58
2023-05-06T06:55:46.194Z,19.13
2023-05-06T06:58:12.760Z,19.02
2023-05-06T07:00:39.314Z,19.45
2023-05-06T07:03:06.095Z,18.97
2023-05-06T07:05:32.603Z,20.40
2023-05-06T07:07:59.150Z,18.48
2023-05-06T07:10:25.861Z,18.27
2023-05-06T07:12:52.459Z,20.77
2023-05-06T07:15:19.124Z,18.40
2023-05-06T07:17:45.648Z,18.90
2023-05-06T07:20:12.675Z,19.35
2023-05-06T07:22:41.242Z,20.17
2023-05-06T07:25:08.588Z,18.67
2023-05-06T07:27:35.235Z,20.97
2023-05-06T07:30:01.730Z,18.80
2023-05-06T07:32:28.210Z,19.42
2023-05-06T07:34:54.799Z,20.02
2023-05-06T07:37:21.278Z,20.77
2023-05-06T07:39:47.740Z,18.70
2023-05-06T07:42:14.186Z,18.42
2023-05-06T07:44:40.678Z,18.52
2023-05-06T07:47:07.421Z,18.38
2023-05-06T07:49:35.472Z,17.48
2023-05-06T07:52:02.118Z,22.63
2023-05-06T07:54:28.971Z,19.73
2023-05-06T07:56:55.908Z,22.40
2023-05-06T07:59:22.557Z,19.80
2023-05-06T08:01:49.022Z,22.85
2023-05-06T08:04:15.613Z,21.70
2023-05-06T08:06:42.199Z,21.08
2023-05-06T08:09:09.313Z,17.83
2023-05-06T08:11:35.837Z,21.15
2023-05-06T08:14:02.403Z,20.10
2023-05-06T08:16:29.046Z,19.43
2023-05-06T08:18:55.702Z,19.00
2023-05-06T08:21:22.203Z,18.85
2023-05-06T08:23:48.656Z,20.23
2023-05-06T08:26:15.524Z,18.80
2023-05-06T08:28:42.074Z,22.00
2023-05-06T08:31:08.683Z,19.05
2023-05-06T08:33:35.148Z,22.90
2023-05-06T08:36:01.645Z,19.50
2023-05-06T08:38:28.103Z,20.05
2023-05-06T08:40:54.975Z,19.67
2023-05-06T08:43:22.398Z,21.70
2023-05-06T08:45:49.717Z,20.38
2023-05-06T08:48:16.966Z,18.30
2023-05-06T08:50:43.739Z,20.65
2023-05-06T08:53:12.147Z,19.70
2023-05-06T08:55:40.798Z,18.48
2023-05-06T08:58:08.385Z,21.20
2023-05-06T09:00:35.773Z,19.60
2023-05-06T09:03:02.384Z,18.88
2023-05-06T09:05:29.062Z,21.00
2023-05-06T09:07:55.554Z,20.35
2023-05-06T09:10:22.334Z,19.38
2023-05-06T09:12:48.813Z,22.80
2023-05-06T09:15:15.328Z,22.65
2023-05-06T09:17:41.780Z,20.53
2023-05-06T09:20:12.366Z,22.48
2023-05-06T09:22:41.946Z,22.70
2023-05-06T09:25:09.821Z,22.20
2023-05-06T09:27:36.767Z,18.15
2023-05-06T09:30:08.762Z,20.73
2023-05-06T09:32:38.302Z,19.15
2023-05-06T09:35:07.396Z,23.73
2023-05-06T09:37:33.983Z,19.25
2023-05-06T09:40:01.131Z,20.83
2023-05-06T09:42:30.931Z,18.70
2023-05-06T09:45:01.996Z,19.63
2023-05-06T09:47:35.320Z,20.00
2023-05-06T09:50:02.914Z,19.50
2023-05-06T09:52:29.905Z,18.73
2023-05-06T09:54:57.326Z,22.13
2023-05-06T09:57:24.382Z,25.17
2023-05-06T09:59:54.477Z,18.25
2023-05-06T10:02:23.585Z,19.23
2023-05-06T10:04:51.169Z,18.80
2023-05-06T10:07:22.765Z,17.43
2023-05-06T10:09:51.437Z,18.58
2023-05-06T10:12:19.892Z,19.88
2023-05-06T10:14:46.486Z,15.23
2023-05-06T10:17:13.827Z,15.65
2023-05-06T10:19:43.741Z,16.73
2023-05-06T10:22:30.842Z,17.55
2023-05-06T10:25:05.918Z,15.32
2023-05-06T10:27:35.985Z,13.95
2023-05-06T10:30:02.486Z,11.82
2023-05-06T10:32:32.539Z,11.27
2023-05-06T10:35:10.266Z,16.58
2023-05-06T10:37:38.051Z,14.63
2023-05-06T10:40:05.704Z,14.30
2023-05-06T10:42:35.554Z,11.60
2023-05-06T10:45:04.200Z,12.90
2023-05-06T10:48:09.780Z,13.98
2023-05-06T10:50:36.479Z,13.07
2023-05-06T10:53:03.214Z,10.65
2023-05-06T10:55:32.623Z,9.68
2023-05-06T10:58:10.895Z,10.00
2023-05-06T11:00:37.896Z,10.90
2023-05-06T11:03:12.760Z,9.65
2023-05-06T11:05:50.486Z,11.45
2023-05-06T11:08:27.173Z,12.85
2023-05-06T11:10:54.254Z,12.23
2023-05-06T11:13:26.950Z,10.40
2023-05-06T11:15:55.498Z,11.07
2023-05-06T11:18:24.793Z,15.55
2023-05-06T11:21:12.627Z,13.45
2023-05-06T11:23:42.067Z,14.50
2023-05-06T11:26:09.553Z,15.35
2023-05-06T11:28:36.284Z,13.43
2023-05-06T11:31:03.122Z,14.27
2023-05-06T11:33:34.479Z,13.77
2023-05-06T11:36:02.169Z,15.23
2023-05-06T11:38:45.853Z,14.90
2023-05-06T11:41:13.006Z,14.85
2023-05-06T11:43:40.041Z,15.95
2023-05-06T11:46:06.801Z,16.38
2023-05-06T11:48:33.731Z,14.77
2023-05-06T11:51:00.397Z,17.35
2023-05-06T11:53:26.953Z,16.75
2023-05-06T11:55:54.187Z,22.48
2023-05-06T11:58:25.155Z,15.45
2023-05-06T12:01:02.504Z,12.23
2023-05-06T12:03:31.289Z,11.18
2023-05-06T12:05:58.558Z,12.00
2023-05-06T12:08:33.633Z,12.77
2023-05-06T12:11:06.279Z,10.60
2023-05-06T12:13:35.635Z,9.77
2023-05-06T12:16:03.411Z,9.07
2023-05-06T12:18:30.761Z,10.43
2023-05-06T12:20:57.664Z,8.20
2023-05-06T12:23:24.172Z,8.90
2023-05-06T12:26:08.288Z,7.40
2023-05-06T12:28:36.771Z,6.95
2023-05-06T12:31:20.214Z,9.32
2023-05-06T12:33:49.776Z,8.02
2023-05-06T12:36:17.366Z,11.63
2023-05-06T12:39:00.079Z,6.77
2023-05-06T12:41:41.105Z,8.55
2023-05-06T12:44:29.612Z,7.30
2023-05-06T12:46:56.111Z,9.00
2023-05-06T12:49:22.750Z,8.25
2023-05-06T12:52:11.618Z,8.33
2023-05-06T12:54:38.194Z,7.63
2023-05-06T12:57:05.744Z,7.20
2023-05-06T12:59:33.227Z,6.53
2023-05-06T13:01:59.728Z,8.82
2023-05-06T13:04:26.653Z,5.63
2023-05-06T13:06:53.188Z,5.03
2023-05-06T13:09:19.743Z,5.65
2023-05-06T13:11:46.478Z,5.57
2023-05-06T13:14:12.943Z,5.88
2023-05-06T13:16:40.119Z,5.93
2023-05-06T13:19:07.220Z,8.45
2023-05-06T13:21:37.094Z,5.65
2023-05-06T13:24:04.181Z,8.98
2023-05-06T13:26:30.635Z,5.28
2023-05-06T13:28:57.091Z,5.47
2023-05-06T13:31:23.664Z,6.43
2023-05-06T13:33:50.658Z,8.55
2023-05-06T13:36:17.254Z,4.60
2023-05-06T13:38:43.775Z,3.85
2023-05-06T13:41:10.357Z,3.37
2023-05-06T13:43:37.027Z,4.55
2023-05-06T13:46:03.937Z,5.57
2023-05-06T13:48:30.610Z,4.30
2023-05-06T13:50:57.195Z,3.30
2023-05-06T13:53:23.664Z,3.60
2023-05-06T13:55:50.149Z,5.32
2023-05-06T13:58:17.266Z,6.22
2023-05-06T14:00:43.771Z,5.40
2023-05-06T14:03:10.347Z,4.05
2023-05-06T14:05:36.936Z,4.50
2023-05-06T14:08:03.438Z,5.50
2023-05-06T14:10:29.874Z,3.85
2023-05-06T14:12:56.373Z,4.68
2023-05-06T14:15:22.894Z,4.60
2023-05-06T14:17:49.724Z,3.40
2023-05-06T14:20:16.240Z,3.58
2023-05-06T14:22:42.771Z,7.05
2023-05-06T14:25:10.093Z,5.22
2023-05-06T14:27:36.861Z,3.83
2023-05-06T14:30:07.660Z,4.00
2023-05-06T14:32:35.713Z,5.32
2023-05-06T14:35:02.376Z,3.88
2023-05-06T14:37:28.850Z,3.50
2023-05-06T14:39:57.548Z,3.72
2023-05-06T14:42:24.194Z,3.83
2023-05-06T14:44:50.853Z,4.28
2023-05-06T14:47:17.519Z,5.65
2023-05-06T14:49:44.106Z,5.50
2023-05-06T14:52:10.644Z,4.53
2023-05-06T14:54:42.059Z,5.37
2023-05-06T14:57:09.704Z,5.30
2023-05-06T14:59:37.049Z,4.85
2023-05-06T15:02:04.398Z,6.38
2023-05-06T15:04:30.921Z,4.50
2023-05-06T15:06:57.881Z,7.23
2023-05-06T15:09:25.557Z,6.72
2023-05-06T15:11:52.148Z,5.47
2023-05-06T15:14:18.681Z,6.07
2023-05-06T15:16:45.738Z,4.30
2023-05-06T15:19:12.713Z,4.73
2023-05-06T15:21:39.272Z,4.65
2023-05-06T15:24:06.216Z,4.95
2023-05-06T15:26:32.675Z,3.55
2023-05-06T15:28:59.119Z,4.40
2023-05-06T15:31:25.730Z,5.47
2023-05-06T15:33:52.143Z,3.53
2023-05-06T15:36:18.688Z,3.95
2023-05-06T15:38:51.181Z,4.85
2023-05-06T15:41:18.145Z,4.88
2023-05-06T15:43:44.888Z,4.77
2023-05-06T15:46:11.872Z,4.85
2023-05-06T15:48:38.372Z,4.32
2023-05-06T15:51:04.853Z,13.10
2023-05-06T15:53:31.334Z,5.43
2023-05-06T15:56:07.191Z,3.33
2023-05-06T15:58:41.810Z,4.45
2023-05-06T16:01:09.173Z,3.70
2023-05-06T16:03:36.620Z,4.00
2023-05-06T16:06:03.450Z,3.92
2023-05-06T16:08:30.345Z,4.03
2023-05-06T16:10:56.795Z,5.32
2023-05-06T16:13:23.389Z,6.38
2023-05-06T16:15:50.041Z,3.40
2023-05-06T16:18:16.689Z,3.50
2023-05-06T16:20:43.184Z,3.57
2023-05-06T16:23:10.197Z,3.72
2023-05-06T16:25:38.309Z,5.70
2023-05-06T16:28:05.777Z,4.75
2023-05-06T16:30:32.327Z,4.78
2023-05-06T16:32:58.907Z,5.60
2023-05-06T16:35:25.508Z,4.20
2023-05-06T16:37:52.021Z,4.43
2023-05-06T16:40:20.864Z,4.70
2023-05-06T16:42:48.855Z,3.47
2023-05-06T16:45:15.702Z,3.53
2023-05-06T16:47:44.187Z,3.97
2023-05-06T16:50:12.201Z,3.92
2023-05-06T16:52:38.984Z,6.00
2023-05-06T16:55:06.440Z,4.20
2023-05-06T16:57:32.945Z,4.23
2023-05-06T16:59:59.432Z,4.13
2023-05-06T17:02:26.017Z,5.20
2023-05-06T17:04:52.508Z,7.15
2023-05-06T17:07:19.428Z,4.38
2023-05-06T17:09:45.900Z,4.60
2023-05-06T17:12:12.423Z,4.57
2023-05-06T17:14:41.097Z,6.45
2023-05-06T17:17:07.610Z,5.00
2023-05-06T17:19:34.158Z,4.47
2023-05-06T17:22:00.592Z,7.00
2023-05-06T17:24:27.110Z,4.85
2023-05-06T17:26:53.568Z,4.90
2023-05-06T17:29:22.267Z,4.75
2023-05-06T17:31:49.660Z,3.53
2023-05-06T17:34:16.616Z,5.20
2023-05-06T17:36:43.226Z,4.30
2023-05-06T17:39:09.714Z,5.50
2023-05-06T17:41:36.336Z,4.43
2023-05-06T17:44:02.958Z,4.88
2023-05-06T17:46:29.602Z,5.00
2023-05-06T17:48:56.041Z,8.88
2023-05-06T17:51:22.615Z,5.07
2023-05-06T17:53:49.160Z,5.40
2023-05-06T17:56:16.618Z,5.90
2023-05-06T17:58:43.062Z,6.17
2023-05-06T18:01:09.560Z,5.80
2023-05-06T18:03:36.238Z,5.72
2023-05-06T18:06:03.004Z,6.45
2023-05-06T18:08:29.636Z,5.72
2023-05-06T18:10:56.276Z,6.10
2023-05-06T18:13:23.151Z,5.75
2023-05-06T18:15:49.767Z,5.20
2023-05-06T18:18:16.454Z,6.57
2023-05-06T18:20:42.960Z,6.63
2023-05-06T18:23:09.534Z,6.80
2023-05-06T18:25:35.997Z,6.47
2023-05-06T18:28:04.884Z,6.80
2023-05-06T18:30:31.406Z,6.47
2023-05-06T18:32:58.028Z,6.13
2023-05-06T18:35:24.653Z,6.13
2023-05-06T18:37:51.083Z,6.38
2023-05-06T18:40:17.868Z,6.03
2023-05-06T18:42:44.394Z,6.80
2023-05-06T18:45:11.610Z,7.18
2023-05-06T18:47:40.114Z,6.70
2023-05-06T18:50:08.415Z,6.50
2023-05-06T18:52:37.496Z,6.13
2023-05-06T18:55:05.435Z,6.05
2023-05-06T18:57:31.998Z,6.80
2023-05-06T18:59:58.557Z,6.60
2023-05-06T19:02:25.135Z,7.15
2023-05-06T19:04:51.600Z,6.07
2023-05-06T19:07:18.332Z,6.05
2023-05-06T19:09:44.852Z,6.85
2023-05-06T19:12:11.648Z,6.50
2023-05-06T19:14:38.422Z,6.45
2023-05-06T19:17:05.460Z,7.15
2023-05-06T19:19:32.096Z,5.72
2023-05-06T19:21:59.756Z,6.65
2023-05-06T19:24:26.196Z,7.73
2023-05-06T19:26:52.698Z,6.90
2023-05-06T19:29:19.314Z,6.85
2023-05-06T19:31:45.857Z,7.28
2023-05-06T19:34:12.367Z,8.20
2023-05-06T19:36:38.868Z,6.87
2023-05-06T19:39:05.361Z,6.25
2023-05-06T19:41:31.978Z,6.30
2023-05-06T19:43:58.447Z,7.47
2023-05-06T19:46:25.024Z,6.10
2023-05-06T19:48:51.570Z,6.77
2023-05-06T19:51:18.059Z,7.55
2023-05-06T19:53:44.889Z,7.32
2023-05-06T19:56:13.513Z,6.32
2023-05-06T19:58:40.521Z,6.93
2023-05-06T20:01:07.107Z,9.63
2023-05-06T20:03:33.768Z,7.70
2023-05-06T20:06:00.662Z,7.45
2023-05-06T20:08:27.377Z,9.60
2023-05-06T20:10:53.888Z,8.52
2023-05-06T20:13:20.617Z,8.50
2023-05-06T20:15:47.528Z,8.40
2023-05-06T20:18:14.522Z,8.73
2023-05-06T20:20:41.431Z,9.45
2023-05-06T20:23:07.969Z,9.30
2023-05-06T20:25:36.865Z,9.53
2023-05-06T20:28:06.763Z,9.63
2023-05-06T20:30:34.062Z,8.60
2023-05-06T20:33:01.004Z,9.27
2023-05-06T20:35:27.619Z,8.75
2023-05-06T20:37:54.644Z,8.67
2023-05-06T20:40:21.703Z,9.27
2023-05-06T20:42:48.412Z,9.43
2023-05-06T20:45:14.962Z,10.65
2023-05-06T20:47:41.690Z,11.48
2023-05-06T20:50:08.970Z,10.40
2023-05-06T20:52:35.918Z,11.05
2023-05-06T20:55:03.128Z,10.55
2023-05-06T20:57:29.719Z,10.38
2023-05-06T20:59:56.207Z,10.68
2023-05-06T21:02:22.837Z,10.33
2023-05-06T21:04:49.397Z,10.30
2023-05-06T21:07:15.907Z,10.73
2023-05-06T21:09:42.334Z,10.95
2023-05-06T21:12:08.799Z,9.57
2023-05-06T21:14:35.266Z,9.43
2023-05-06T21:17:01.801Z,10.50
2023-05-06T21:19:28.328Z,10.00
2023-05-06T21:21:54.838Z,11.35
2023-05-06T21:24:21.288Z,10.25
2023-05-06T21:26:47.869Z,9.50
2023-05-06T21:29:14.378Z,10.63
2023-05-06T21:31:40.911Z,10.63
2023-05-06T21:34:08.066Z,11.45
2023-05-06T21:36:37.497Z,14.50
2023-05-06T21:39:12.118Z,12.27
2023-05-06T21:41:39.652Z,12.63
2023-05-06T21:44:08.329Z,11.68
2023-05-06T21:46:36.666Z,10.55
2023-05-06T21:49:03.900Z,10.25
2023-05-06T21:51:35.305Z,10.33
2023-05-06T21:54:02.672Z,10.68
2023-05-06T21:56:29.236Z,10.77
2023-05-06T21:58:55.902Z,10.45
2023-05-06T22:01:23.154Z,10.30
2023-05-06T22:03:49.915Z,15.57
2023-05-06T22:06:16.532Z,10.07
2023-05-06T22:08:43.013Z,10.52
2023-05-06T22:11:09.511Z,10.50
2023-05-06T22:13:36.182Z,12.07
2023-05-06T22:16:03.063Z,10.57
2023-05-06T22:18:29.975Z,10.45
2023-05-06T22:20:57.808Z,10.93
2023-05-06T22:23:24.994Z,10.27
2023-05-06T22:25:52.150Z,11.18
2023-05-06T22:28:19.578Z,11.37
2023-05-06T22:30:46.266Z,11.18
2023-05-06T22:33:12.726Z,11.85
2023-05-06T22:35:39.194Z,11.73
2023-05-06T22:38:05.730Z,12.70
2023-05-06T22:40:32.221Z,11.80
2023-05-06T22:42:58.670Z,13.25
2023-05-06T22:45:25.157Z,13.57
2023-05-06T22:47:51.679Z,17.90
2023-05-06T22:50:18.352Z,12.95
2023-05-06T22:52:44.833Z,13.30
2023-05-06T22:55:11.704Z,12.82
2023-05-06T22:57:38.511Z,13.57
2023-05-06T23:00:06.957Z,12.85
2023-05-06T23:02:33.467Z,12.75
2023-05-06T23:04:59.997Z,12.27
2023-05-06T23:07:26.471Z,11.50
2023-05-06T23:09:52.908Z,11.93
2023-05-06T23:12:19.356Z,12.15
2023-05-06T23:14:45.816Z,11.82
2023-05-06T23:17:12.321Z,11.53
2023-05-06T23:19:38.870Z,11.18
2023-05-06T23:22:05.389Z,10.15
2023-05-06T23:24:31.851Z,9.90
2023-05-06T23:26:58.278Z,11.30
2023-05-06T23:29:24.781Z,10.23
2023-05-06T23:31:51.276Z,10.10
2023-05-06T23:34:17.706Z,10.68
2023-05-06T23:36:44.285Z,10.95
2023-05-06T23:39:12.136Z,10.88
2023-05-06T23:41:38.751Z,10.43
2023-05-06T23:44:06.258Z,10.65
2023-05-06T23:46:33.080Z,10.32
2023-05-06T23:48:59.700Z,10.45
2023-05-06T23:51:26.540Z,10.10
2023-05-06T23:53:53.139Z,10.60
2023-05-06T23:56:20.521Z,10.82
2023-05-06T23:58:47.056Z,9.77
